Time;durP1;ratioP1;P1;durP2;ratioP2;P2;SDS_P1;SDS_P2;PMS_P1;PMS_P2;Temp;Humidity;BMP_temperature;BMP_pressure;BME280_temperature;BME280_humidity;BME280_pressure;Samples;Min_cycle;Max_cycle;Signal;HPM_P1;HPM_P2
2021/12/22 00:02:45;;;;;;;;;;;-0.90;99.90;;;;;;8387009;28;19925;-70
2021/12/22 00:06:47;;;;;;;;;;;-0.90;99.90;;;;;;8354299;28;20070;-70
2021/12/22 00:10:49;;;;;;;;;;;-0.90;99.90;;;;;;8391753;28;19975;-70
2021/12/22 00:14:51;;;;;;;;;;;-0.90;99.90;;;;;;8394812;28;19971;-69
2021/12/22 00:18:53;;;;;;;;;;;-0.80;99.90;;;;;;8383177;28;19947;-71
2021/12/22 00:22:54;;;;;;;;;;;-0.90;99.90;;;;;;8385202;28;19936;-70
2021/12/22 00:26:57;;;;;;;;;;;-0.90;99.90;;;;;;8362189;28;19956;-70
2021/12/22 00:31:10;;;;;;;;;;;-0.90;99.90;;;;;;8381838;28;20015;-70
2021/12/22 00:35:13;;;;;;;;;;;-1.00;99.90;;;;;;8360528;28;19931;-70
2021/12/22 00:39:14;;;;;;;;;;;-1.00;99.90;;;;;;8375231;28;19932;-70
2021/12/22 00:43:17;;;;;;;;;;;-1.10;99.90;;;;;;8360115;28;19929;-69
2021/12/22 00:47:19;;;;;;;;;;;-1.20;99.90;;;;;;8379872;28;19960;-70
2021/12/22 00:51:21;;;;;;;;;;;-1.20;99.90;;;;;;8365486;28;19939;-70
2021/12/22 00:55:23;;;;;;;;;;;-1.20;99.90;;;;;;8383449;28;19963;-70
2021/12/22 00:59:24;;;;;;;;;;;-1.30;99.90;;;;;;8378911;28;19984;-70
2021/12/22 01:03:26;;;;;;;;;;;-1.30;99.90;;;;;;8360701;28;19924;-71
2021/12/22 01:07:28;;;;;;;;;;;-1.30;99.90;;;;;;8378144;28;19924;-70
2021/12/22 01:11:49;;;;;;;;;;;-1.30;99.90;;;;;;8384001;28;20331;-70
2021/12/22 01:15:50;;;;;;;;;;;-1.20;99.90;;;;;;8399051;28;19936;-70
2021/12/22 01:20:05;;;;;;;;;;;-1.20;99.90;;;;;;8382064;28;20399;-69
2021/12/22 01:24:22;;;;;;;;;;;-1.20;99.90;;;;;;8382400;28;19932;-69
2021/12/22 01:28:26;;;;;;;;;;;-1.10;99.90;;;;;;8384153;28;19925;-69
2021/12/22 01:32:28;;;;;;;;;;;-1.10;99.90;;;;;;8392927;28;19932;-69
2021/12/22 01:36:30;;;;;;;;;;;-1.10;99.90;;;;;;8386278;28;19932;-70
2021/12/22 01:40:32;;;;;;;;;;;-1.10;99.90;;;;;;8376231;28;20372;-69
2021/12/22 01:44:47;;;;;;;;;;;-1.10;99.90;;;;;;8373125;28;19925;-69
2021/12/22 01:49:13;;;;;;;;;;;-1.10;99.90;;;;;;8362351;28;19935;-70
2021/12/22 01:53:21;;;;;;;;;;;-1.10;99.90;;;;;;8386614;28;19929;-70
2021/12/22 01:57:23;;;;;;;;;;;-1.10;99.90;;;;;;8394911;28;20331;-69
2021/12/22 02:01:25;;;;;;;;;;;-1.20;99.90;;;;;;8367768;28;19928;-71
2021/12/22 02:05:27;;;;;;;;;;;-1.20;99.90;;;;;;8385630;28;19924;-70
2021/12/22 02:13:56;;;;;;;;;;;-1.20;99.90;;;;;;8384874;28;19925;-69
2021/12/22 02:18:01;;;;;;;;;;;-1.20;99.90;;;;;;8384701;28;20094;-70
2021/12/22 02:22:08;;;;;;;;;;;-1.20;99.90;;;;;;8381566;28;19932;-70
2021/12/22 02:26:15;;;;;;;;;;;-1.20;99.90;;;;;;8377736;28;19931;-70
2021/12/22 02:30:23;;;;;;;;;;;-1.30;99.90;;;;;;8380833;28;19940;-69
2021/12/22 02:34:25;;;;;;;;;;;-1.20;99.90;;;;;;8381773;28;20339;-69
2021/12/22 02:38:27;;;;;;;;;;;-1.30;99.90;;;;;;8378089;28;19932;-70
2021/12/22 02:42:29;;;;;;;;;;;-1.30;99.90;;;;;;8388779;28;20030;-69
2021/12/22 02:46:33;;;;;;;;;;;-1.30;99.90;;;;;;8380766;28;19933;-69
2021/12/22 02:50:36;;;;;;;;;;;-1.30;99.90;;;;;;8371028;28;20292;-70
2021/12/22 02:54:51;;;;;;;;;;;-1.30;99.90;;;;;;8358460;28;20384;-70
2021/12/22 03:07:04;;;;;;;;;;;-1.30;99.90;;;;;;8388554;28;19925;-70
2021/12/22 03:11:05;;;;;;;;;;;-1.30;99.90;;;;;;8381728;28;19924;-69
2021/12/22 03:15:09;;;;;;;;;;;-1.40;99.90;;;;;;8363641;28;19967;-70
2021/12/22 03:19:11;;;;;;;;;;;-1.40;99.90;;;;;;8360426;28;19978;-70
2021/12/22 03:23:13;;;;;;;;;;;-1.40;99.90;;;;;;8378560;28;19948;-69
2021/12/22 03:27:15;;;;;;;;;;;-1.40;99.90;;;;;;8375014;28;19932;-70
2021/12/22 03:31:16;;;;;;;;;;;-1.40;99.90;;;;;;8381035;28;20391;-69
2021/12/22 03:35:20;;;;;;;;;;;-1.40;99.90;;;;;;8356414;28;20399;-69
2021/12/22 03:39:22;;;;;;;;;;;-1.40;99.90;;;;;;8379706;28;19924;-70
2021/12/22 03:43:23;;;;;;;;;;;-1.40;99.90;;;;;;8382681;28;19931;-70
2021/12/22 03:47:26;;;;;;;;;;;-1.40;99.90;;;;;;8382798;28;19959;-69
2021/12/22 03:51:28;;;;;;;;;;;-1.50;99.90;;;;;;8370254;28;19964;-69
2021/12/22 03:55:29;;;;;;;;;;;-1.50;99.90;;;;;;8367815;28;19976;-70
2021/12/22 03:59:31;;;;;;;;;;;-1.50;99.90;;;;;;8379721;28;19932;-70
2021/12/22 04:03:34;;;;;;;;;;;-1.50;99.90;;;;;;8380723;28;19924;-69
2021/12/22 04:07:36;;;;;;;;;;;-1.50;99.90;;;;;;8376747;28;19928;-69
2021/12/22 04:11:37;;;;;;;;;;;-1.60;99.90;;;;;;8380491;28;19925;-70
2021/12/22 04:15:39;;;;;;;;;;;-1.60;99.90;;;;;;8374660;28;19972;-69
2021/12/22 04:19:41;;;;;;;;;;;-1.60;99.90;;;;;;8381678;28;19928;-69
2021/12/22 04:23:42;;;;;;;;;;;-1.60;99.90;;;;;;8380576;28;19931;-70
2021/12/22 04:27:44;;;;;;;;;;;-1.60;99.90;;;;;;8385635;28;19963;-70
2021/12/22 04:31:45;;;;;;;;;;;-1.60;99.90;;;;;;8385619;28;20376;-70
2021/12/22 04:35:48;;;;;;;;;;;-1.60;99.90;;;;;;8381316;28;19963;-70
2021/12/22 04:39:49;;;;;;;;;;;-1.60;99.90;;;;;;8368248;28;19928;-70
2021/12/22 04:43:51;;;;;;;;;;;-1.60;99.90;;;;;;8384036;28;19936;-69
2021/12/22 04:47:53;;;;;;;;;;;-1.60;99.90;;;;;;8378100;28;19925;-70
2021/12/22 04:51:56;;;;;;;;;;;-1.60;99.90;;;;;;8372299;28;19940;-69
2021/12/22 04:55:57;;;;;;;;;;;-1.60;99.90;;;;;;8376606;28;19967;-69
2021/12/22 05:00:00;;;;;;;;;;;-1.70;99.90;;;;;;8369765;28;19925;-69
2021/12/22 05:04:02;;;;;;;;;;;-1.70;99.90;;;;;;8352124;28;20002;-70
2021/12/22 05:08:04;;;;;;;;;;;-1.70;99.90;;;;;;8370288;28;20186;-70
2021/12/22 05:12:06;;;;;;;;;;;-1.70;99.90;;;;;;8375290;28;19928;-70
2021/12/22 05:16:15;;;;;;;;;;;-1.70;99.90;;;;;;8377746;28;19987;-69
2021/12/22 05:20:17;;;;;;;;;;;-1.70;99.90;;;;;;8382635;28;20007;-69
2021/12/22 05:24:18;;;;;;;;;;;-1.80;99.90;;;;;;8389661;28;19975;-69
2021/12/22 05:28:20;;;;;;;;;;;-1.80;99.90;;;;;;8380849;28;19924;-69
2021/12/22 05:32:26;;;;;;;;;;;-1.90;99.90;;;;;;8363199;28;19929;-69
2021/12/22 05:36:27;;;;;;;;;;;-1.90;99.90;;;;;;8380981;28;20351;-69
2021/12/22 05:40:30;;;;;;;;;;;-1.90;99.90;;;;;;8376038;28;19967;-69
2021/12/22 05:44:31;;;;;;;;;;;-1.90;99.90;;;;;;8365485;28;19936;-69
2021/12/22 05:48:33;;;;;;;;;;;-1.90;99.90;;;;;;8372209;28;19925;-69
2021/12/22 05:52:35;;;;;;;;;;;-1.90;99.90;;;;;;8380369;28;20352;-69
2021/12/22 05:56:37;;;;;;;;;;;-2.00;99.90;;;;;;8372901;28;19963;-69
2021/12/22 06:00:38;;;;;;;;;;;-2.00;99.90;;;;;;8378829;28;19960;-69
2021/12/22 06:04:40;;;;;;;;;;;-2.00;99.90;;;;;;8387629;28;19931;-70
2021/12/22 06:08:42;;;;;;;;;;;-2.00;99.90;;;;;;8384945;28;19951;-69
2021/12/22 06:12:43;;;;;;;;;;;-2.00;99.90;;;;;;8392167;28;19924;-69
2021/12/22 06:16:45;;;;;;;;;;;-2.10;99.90;;;;;;8361528;28;19932;-69
2021/12/22 06:20:46;;;;;;;;;;;-2.10;99.90;;;;;;8384540;28;20387;-69
2021/12/22 06:24:48;;;;;;;;;;;-2.10;99.90;;;;;;8377093;28;19964;-69
2021/12/22 06:28:50;;;;;;;;;;;-2.20;99.90;;;;;;8383075;28;19933;-69
2021/12/22 06:32:52;;;;;;;;;;;-2.20;99.90;;;;;;8389877;28;19929;-69
2021/12/22 06:36:54;;;;;;;;;;;-2.30;99.90;;;;;;8385625;28;19933;-69
2021/12/22 06:40:59;;;;;;;;;;;-2.30;99.90;;;;;;8369959;28;19924;-70
2021/12/22 06:45:00;;;;;;;;;;;-2.30;99.90;;;;;;8387681;28;20426;-69
2021/12/22 06:49:02;;;;;;;;;;;-2.30;99.90;;;;;;8400357;28;20148;-69
2021/12/22 06:53:04;;;;;;;;;;;-2.40;99.90;;;;;;8387238;28;20391;-70
2021/12/22 06:57:05;;;;;;;;;;;-2.40;99.90;;;;;;8390096;28;19971;-69
2021/12/22 07:01:07;;;;;;;;;;;-2.40;99.90;;;;;;8376978;28;20018;-69
2021/12/22 07:05:10;;;;;;;;;;;-2.40;99.90;;;;;;8373790;28;20369;-70
2021/12/22 07:09:12;;;;;;;;;;;-2.40;99.90;;;;;;8362554;28;19939;-70
2021/12/22 07:13:14;;;;;;;;;;;-2.40;99.90;;;;;;8370799;28;19924;-69
2021/12/22 07:17:16;;;;;;;;;;;-2.40;99.90;;;;;;8381078;28;19929;-70
2021/12/22 07:21:17;;;;;;;;;;;-2.40;99.90;;;;;;8374034;28;19925;-70
2021/12/22 07:25:23;;;;;;;;;;;-2.40;99.90;;;;;;8379919;28;19932;-70
2021/12/22 07:29:24;;;;;;;;;;;-2.30;99.90;;;;;;8378544;28;20065;-70
2021/12/22 07:33:26;;;;;;;;;;;-2.30;99.90;;;;;;8381170;28;19931;-69
2021/12/22 07:37:31;;;;;;;;;;;-2.30;99.90;;;;;;8385035;28;19959;-69
2021/12/22 07:41:33;;;;;;;;;;;-2.30;99.90;;;;;;8388280;28;19972;-69
2021/12/22 07:45:34;;;;;;;;;;;-2.30;99.90;;;;;;8366556;28;19924;-69
2021/12/22 07:49:36;;;;;;;;;;;-2.20;99.90;;;;;;8378408;28;19970;-69
2021/12/22 07:53:38;;;;;;;;;;;-2.30;99.90;;;;;;8351836;28;19960;-69
2021/12/22 07:57:39;;;;;;;;;;;-2.30;99.90;;;;;;8380653;28;19963;-69
2021/12/22 08:01:41;;;;;;;;;;;-2.20;99.90;;;;;;8378983;28;20399;-69
2021/12/22 08:05:43;;;;;;;;;;;-2.30;99.90;;;;;;8382128;28;19933;-69
2021/12/22 08:09:44;;;;;;;;;;;-2.20;99.90;;;;;;8364578;28;19978;-69
2021/12/22 08:13:46;;;;;;;;;;;-2.20;99.90;;;;;;8357581;28;19963;-69
2021/12/22 08:17:48;;;;;;;;;;;-2.20;99.90;;;;;;8377470;28;19964;-69
2021/12/22 08:21:49;;;;;;;;;;;-2.10;99.90;;;;;;8351911;28;19935;-70
2021/12/22 08:25:51;;;;;;;;;;;-2.10;99.90;;;;;;8381422;28;19925;-69
2021/12/22 08:29:53;;;;;;;;;;;-2.00;99.90;;;;;;8381014;28;19975;-69
2021/12/22 08:33:55;;;;;;;;;;;-1.90;99.90;;;;;;8355444;28;19982;-69
2021/12/22 08:42:17;;;;;;;;;;;-1.80;99.90;;;;;;8381695;28;20341;-69
2021/12/22 08:46:19;;;;;;;;;;;-1.80;99.90;;;;;;8381240;28;20399;-69
2021/12/22 08:50:24;;;;;;;;;;;-1.70;99.90;;;;;;8363798;28;19940;-69
2021/12/22 08:54:26;;;;;;;;;;;-1.60;99.90;;;;;;8394032;28;19939;-69
2021/12/22 08:58:27;;;;;;;;;;;-1.50;99.90;;;;;;8363261;28;20383;-69
2021/12/22 09:02:29;;;;;;;;;;;-1.40;99.90;;;;;;8376157;28;19972;-70
2021/12/22 09:06:32;;;;;;;;;;;-1.30;99.90;;;;;;8376097;28;19928;-69
2021/12/22 09:10:33;;;;;;;;;;;-1.20;99.90;;;;;;8375910;28;20334;-69
2021/12/22 09:14:35;;;;;;;;;;;-1.00;99.90;;;;;;8370557;28;19924;-70
2021/12/22 09:18:37;;;;;;;;;;;-0.80;99.90;;;;;;8378704;28;19932;-69
2021/12/22 09:22:39;;;;;;;;;;;-0.60;99.90;;;;;;8375224;28;19929;-69
2021/12/22 09:26:40;;;;;;;;;;;-0.30;99.90;;;;;;8361809;28;19972;-69
2021/12/22 09:30:43;;;;;;;;;;;-0.10;99.90;;;;;;8383914;28;19925;-69
2021/12/22 09:34:45;;;;;;;;;;;0.00;99.90;;;;;;8384906;28;19936;-70
2021/12/22 09:38:46;;;;;;;;;;;0.10;99.90;;;;;;8381155;28;21118;-69
2021/12/22 09:42:48;;;;;;;;;;;0.20;99.90;;;;;;8364328;28;19924;-69
2021/12/22 09:46:53;;;;;;;;;;;0.20;99.90;;;;;;8386721;28;19966;-69
2021/12/22 09:54:59;;;;;;;;;;;0.30;99.90;;;;;;8383778;28;20387;-70
2021/12/22 09:59:01;;;;;;;;;;;0.30;99.90;;;;;;8385244;28;19939;-70
2021/12/22 10:03:04;;;;;;;;;;;0.30;99.90;;;;;;8382115;28;19940;-70
2021/12/22 10:07:08;;;;;;;;;;;0.30;99.90;;;;;;8385621;28;20311;-69
2021/12/22 10:11:11;;;;;;;;;;;0.30;99.90;;;;;;8384875;28;19940;-69
2021/12/22 10:15:16;;;;;;;;;;;0.30;99.90;;;;;;8365093;28;19960;-69
2021/12/22 10:19:19;;;;;;;;;;;0.20;99.90;;;;;;8385462;28;19937;-69
2021/12/22 10:23:24;;;;;;;;;;;0.30;99.90;;;;;;8382070;28;19956;-69
2021/12/22 10:27:29;;;;;;;;;;;0.30;99.90;;;;;;8384259;28;19928;-69
2021/12/22 10:31:38;;;;;;;;;;;0.50;99.90;;;;;;8383493;28;20015;-69
2021/12/22 10:35:40;;;;;;;;;;;0.80;99.90;;;;;;8364927;28;19928;-69
2021/12/22 10:39:42;;;;;;;;;;;1.20;99.90;;;;;;8383462;28;20202;-69
2021/12/22 10:43:45;;;;;;;;;;;1.50;99.90;;;;;;8365703;28;19967;-69
2021/12/22 10:52:23;;;;;;;;;;;2.50;99.90;;;;;;8382552;28;20386;-70
2021/12/22 10:56:24;;;;;;;;;;;3.10;99.90;;;;;;8386302;28;20071;-70
2021/12/22 11:00:26;;;;;;;;;;;3.20;99.90;;;;;;8385175;28;19928;-70
2021/12/22 11:04:30;;;;;;;;;;;3.40;99.90;;;;;;8382898;28;19925;-71
2021/12/22 11:08:32;;;;;;;;;;;3.60;99.90;;;;;;8351081;28;19976;-70
2021/12/22 11:12:38;;;;;;;;;;;4.00;99.90;;;;;;8349503;28;19940;-70
2021/12/22 11:16:55;;;;;;;;;;;4.50;99.90;;;;;;8380374;28;20019;-69
2021/12/22 11:21:10;;;;;;;;;;;5.00;99.90;;;;;;8364472;28;19960;-70
2021/12/22 11:25:12;;;;;;;;;;;5.30;99.90;;;;;;8382849;28;20337;-70
2021/12/22 11:29:15;;;;;;;;;;;5.20;99.90;;;;;;8381343;28;19924;-70
2021/12/22 11:33:17;;;;;;;;;;;5.10;99.90;;;;;;8381950;28;19976;-70
2021/12/22 11:37:19;;;;;;;;;;;5.00;99.90;;;;;;8364314;28;19956;-70
2021/12/22 11:41:21;;;;;;;;;;;5.20;99.90;;;;;;8372267;28;20015;-70
2021/12/22 11:45:24;;;;;;;;;;;5.30;99.90;;;;;;8378980;28;19976;-70
2021/12/22 11:49:26;;;;;;;;;;;5.50;99.90;;;;;;8375469;28;19972;-70
2021/12/22 11:53:47;;;;;;;;;;;5.70;99.90;;;;;;8371982;28;21266;-70
2021/12/22 11:57:50;;;;;;;;;;;5.90;99.90;;;;;;8371888;28;20062;-70
2021/12/22 12:02:10;;;;;;;;;;;6.00;99.90;;;;;;8370288;28;19968;-70
2021/12/22 12:06:12;;;;;;;;;;;5.80;99.90;;;;;;8355129;28;20341;-70
2021/12/22 12:10:33;;;;;;;;;;;5.60;99.90;;;;;;8377476;28;20556;-70
2021/12/22 12:14:54;;;;;;;;;;;5.40;99.90;;;;;;8363690;28;20027;-70
2021/12/22 12:23:29;;;;;;;;;;;5.00;99.90;;;;;;8372201;28;20014;-70
2021/12/22 12:27:44;;;;;;;;;;;4.80;99.90;;;;;;8373075;28;20514;-70
2021/12/22 12:31:46;;;;;;;;;;;4.90;99.90;;;;;;8350004;28;20367;-70
2021/12/22 12:36:06;;;;;;;;;;;5.00;99.90;;;;;;8380472;28;20239;-70
2021/12/22 12:40:08;;;;;;;;;;;5.20;99.90;;;;;;8379469;28;19935;-70
2021/12/22 12:44:11;;;;;;;;;;;5.50;99.90;;;;;;8383543;28;19935;-70
2021/12/22 12:48:25;;;;;;;;;;;5.70;99.90;;;;;;8354341;28;19929;-70
2021/12/22 12:52:27;;;;;;;;;;;5.90;99.90;;;;;;8363361;28;20343;-70
2021/12/22 12:56:30;;;;;;;;;;;5.90;99.90;;;;;;8371217;28;20296;-70
2021/12/22 13:00:44;;;;;;;;;;;5.80;99.90;;;;;;8379636;28;20372;-70
2021/12/22 13:04:46;;;;;;;;;;;5.70;99.90;;;;;;8380810;28;19976;-70
2021/12/22 13:08:48;;;;;;;;;;;5.50;99.90;;;;;;8391240;28;20039;-70
2021/12/22 13:13:03;;;;;;;;;;;5.30;99.90;;;;;;8377401;28;20023;-70
2021/12/22 13:17:04;;;;;;;;;;;5.20;99.90;;;;;;8385057;28;19956;-70
2021/12/22 13:21:07;;;;;;;;;;;5.10;99.90;;;;;;8389471;28;20050;-70
2021/12/22 13:25:18;;;;;;;;;;;4.90;99.90;;;;;;8388827;28;20003;-70
2021/12/22 13:29:20;;;;;;;;;;;4.70;99.90;;;;;;8390087;28;19935;-70
2021/12/22 13:33:26;;;;;;;;;;;4.40;99.90;;;;;;8387574;28;20023;-69
2021/12/22 13:37:29;;;;;;;;;;;4.20;99.90;;;;;;8393600;28;19980;-69
2021/12/22 13:41:32;;;;;;;;;;;4.10;99.90;;;;;;8386814;28;19933;-69
2021/12/22 13:45:35;;;;;;;;;;;3.90;99.90;;;;;;8394438;28;19928;-69
2021/12/22 13:49:37;;;;;;;;;;;3.70;99.90;;;;;;8330857;28;20003;-69
2021/12/22 13:53:40;;;;;;;;;;;3.50;99.90;;;;;;8320435;28;20391;-69
2021/12/22 13:57:42;;;;;;;;;;;3.40;99.90;;;;;;8318166;28;19932;-69
2021/12/22 14:01:44;;;;;;;;;;;3.30;99.90;;;;;;8316950;28;19936;-70
2021/12/22 14:06:03;;;;;;;;;;;3.20;99.90;;;;;;8305732;28;21459;-70
2021/12/22 14:10:09;;;;;;;;;;;3.20;99.90;;;;;;8295542;28;19930;-70
2021/12/22 14:14:33;;;;;;;;;;;3.10;99.90;;;;;;8299310;28;20009;-70
2021/12/22 14:18:35;;;;;;;;;;;3.00;99.90;;;;;;8295546;28;19977;-70
2021/12/22 14:22:39;;;;;;;;;;;2.80;99.90;;;;;;8298486;28;19937;-70
2021/12/22 14:26:47;;;;;;;;;;;2.70;99.90;;;;;;8302202;28;20059;-70
2021/12/22 14:30:49;;;;;;;;;;;2.70;99.90;;;;;;8299126;28;20055;-70
2021/12/22 14:35:07;;;;;;;;;;;2.50;99.90;;;;;;8292979;28;19965;-70
2021/12/22 14:39:09;;;;;;;;;;;2.50;99.90;;;;;;8294208;28;19976;-70
2021/12/22 14:43:12;;;;;;;;;;;2.40;99.90;;;;;;8308414;28;19936;-69
2021/12/22 14:47:20;;;;;;;;;;;2.40;99.90;;;;;;8322489;28;19931;-69
2021/12/22 14:51:22;;;;;;;;;;;2.40;99.90;;;;;;8382859;28;19947;-69
2021/12/22 14:55:44;;;;;;;;;;;2.30;99.90;;;;;;8385460;28;19987;-69
2021/12/22 14:59:46;;;;;;;;;;;2.20;99.90;;;;;;8382117;28;19924;-70
2021/12/22 15:03:48;;;;;;;;;;;2.20;99.90;;;;;;8362491;28;19963;-70
2021/12/22 15:07:50;;;;;;;;;;;2.10;99.90;;;;;;8378532;28;19935;-69
2021/12/22 15:11:51;;;;;;;;;;;2.10;99.90;;;;;;8364333;28;19982;-69
2021/12/22 15:15:53;;;;;;;;;;;2.00;99.90;;;;;;8384041;28;19955;-69
2021/12/22 15:19:55;;;;;;;;;;;1.90;99.90;;;;;;8372370;28;19932;-69
2021/12/22 15:23:56;;;;;;;;;;;1.90;99.90;;;;;;8380418;28;19928;-70
2021/12/22 15:27:58;;;;;;;;;;;1.80;99.90;;;;;;8384150;28;19935;-69
2021/12/22 15:32:00;;;;;;;;;;;1.80;99.90;;;;;;8383071;28;19971;-69
2021/12/22 15:36:02;;;;;;;;;;;1.80;99.90;;;;;;8376504;28;19971;-69
2021/12/22 15:40:04;;;;;;;;;;;1.70;99.90;;;;;;8352662;28;20376;-70
2021/12/22 15:44:06;;;;;;;;;;;1.60;99.90;;;;;;8379215;28;19925;-70
2021/12/22 15:48:08;;;;;;;;;;;1.60;99.90;;;;;;8378266;28;19931;-69
2021/12/22 15:52:09;;;;;;;;;;;1.60;99.90;;;;;;8363363;28;20379;-70
2021/12/22 15:56:11;;;;;;;;;;;1.50;99.90;;;;;;8367407;28;19963;-70
2021/12/22 16:00:14;;;;;;;;;;;1.40;99.90;;;;;;8379073;28;19929;-70
2021/12/22 16:04:16;;;;;;;;;;;1.40;99.90;;;;;;8382056;28;19982;-69
2021/12/22 16:08:17;;;;;;;;;;;1.40;99.90;;;;;;8383809;28;19971;-69
2021/12/22 16:12:19;;;;;;;;;;;1.30;99.90;;;;;;8364934;28;19931;-69
2021/12/22 16:16:21;;;;;;;;;;;1.20;99.90;;;;;;8382977;28;19959;-69
2021/12/22 16:20:24;;;;;;;;;;;1.20;99.90;;;;;;8380399;28;19931;-69
2021/12/22 16:24:25;;;;;;;;;;;1.10;99.90;;;;;;8380673;28;19939;-69
2021/12/22 16:28:27;;;;;;;;;;;1.10;99.90;;;;;;8381038;28;20288;-70
2021/12/22 16:32:29;;;;;;;;;;;1.00;99.90;;;;;;8360873;28;19925;-70
2021/12/22 16:36:31;;;;;;;;;;;1.00;99.90;;;;;;8364024;28;19932;-70
2021/12/22 16:40:33;;;;;;;;;;;0.90;99.90;;;;;;8361154;28;19925;-69
2021/12/22 16:44:35;;;;;;;;;;;0.90;99.90;;;;;;8384143;28;19975;-69
2021/12/22 16:48:36;;;;;;;;;;;0.90;99.90;;;;;;8381428;28;19932;-69
2021/12/22 16:52:38;;;;;;;;;;;0.80;99.90;;;;;;8376455;28;20015;-70
2021/12/22 16:56:40;;;;;;;;;;;0.80;99.90;;;;;;8377653;28;19960;-70
2021/12/22 17:00:41;;;;;;;;;;;0.70;99.90;;;;;;8378929;28;19959;-70
2021/12/22 17:04:43;;;;;;;;;;;0.70;99.90;;;;;;8354676;28;20266;-70
2021/12/22 17:08:45;;;;;;;;;;;0.70;99.90;;;;;;8354478;28;20371;-69
2021/12/22 17:12:47;;;;;;;;;;;0.70;99.90;;;;;;8357820;28;20536;-69
2021/12/22 17:16:51;;;;;;;;;;;0.70;99.90;;;;;;8356780;28;19940;-69
2021/12/22 17:20:52;;;;;;;;;;;0.60;99.90;;;;;;8352751;28;20218;-69
2021/12/22 17:24:54;;;;;;;;;;;0.60;99.90;;;;;;8358937;28;19924;-69
2021/12/22 17:28:55;;;;;;;;;;;0.60;99.90;;;;;;8356518;28;19968;-69
2021/12/22 17:32:59;;;;;;;;;;;0.60;99.90;;;;;;8353333;28;19947;-69
2021/12/22 17:37:01;;;;;;;;;;;0.60;99.90;;;;;;8356059;28;20023;-69
2021/12/22 17:41:04;;;;;;;;;;;0.60;99.90;;;;;;8353574;28;20415;-69
2021/12/22 17:45:06;;;;;;;;;;;0.50;99.90;;;;;;8361341;28;20070;-69
2021/12/22 17:49:08;;;;;;;;;;;0.50;99.90;;;;;;8359572;28;20059;-69
2021/12/22 17:53:10;;;;;;;;;;;0.50;99.90;;;;;;8346048;28;19929;-70
2021/12/22 17:57:12;;;;;;;;;;;0.40;99.90;;;;;;8360731;28;20168;-70
2021/12/22 18:01:14;;;;;;;;;;;0.40;99.90;;;;;;8357533;28;20007;-70
2021/12/22 18:05:16;;;;;;;;;;;0.30;99.90;;;;;;8363461;28;20554;-69
2021/12/22 18:09:19;;;;;;;;;;;0.30;99.90;;;;;;8361756;28;20211;-69
2021/12/22 18:13:20;;;;;;;;;;;0.20;99.90;;;;;;8371522;28;19932;-69
2021/12/22 18:17:22;;;;;;;;;;;0.30;99.90;;;;;;8384400;28;19928;-69
2021/12/22 18:21:26;;;;;;;;;;;0.20;99.90;;;;;;8381966;28;19960;-69
2021/12/22 18:25:27;;;;;;;;;;;0.20;99.90;;;;;;8358913;28;20396;-69
2021/12/22 18:29:29;;;;;;;;;;;0.20;99.90;;;;;;8378197;28;20043;-70
2021/12/22 18:33:31;;;;;;;;;;;0.20;99.90;;;;;;8366951;28;20011;-70
2021/12/22 18:37:35;;;;;;;;;;;0.20;99.90;;;;;;8379564;28;20357;-69
2021/12/22 18:41:37;;;;;;;;;;;0.20;99.90;;;;;;8379605;28;19963;-69
2021/12/22 18:45:39;;;;;;;;;;;0.20;99.90;;;;;;8355567;28;20308;-69
2021/12/22 18:49:41;;;;;;;;;;;0.20;99.90;;;;;;8376958;28;19972;-70
2021/12/22 18:53:42;;;;;;;;;;;0.20;99.90;;;;;;8376004;28;20016;-69
2021/12/22 18:57:44;;;;;;;;;;;0.20;99.90;;;;;;8380018;28;20296;-69
2021/12/22 19:01:46;;;;;;;;;;;0.10;99.90;;;;;;8354186;28;19970;-69
2021/12/22 19:05:48;;;;;;;;;;;0.20;99.90;;;;;;8377501;28;20570;-69
2021/12/22 19:09:49;;;;;;;;;;;0.10;99.90;;;;;;8363972;28;19967;-70
2021/12/22 19:13:51;;;;;;;;;;;0.10;99.90;;;;;;8382375;28;19925;-70
2021/12/22 19:17:52;;;;;;;;;;;0.10;99.90;;;;;;8363492;28;21099;-68
2021/12/22 19:21:54;;;;;;;;;;;0.10;99.90;;;;;;8379592;28;19971;-69
2021/12/22 19:25:56;;;;;;;;;;;0.00;99.90;;;;;;8381886;28;20051;-70
2021/12/22 19:29:57;;;;;;;;;;;0.10;99.90;;;;;;8384566;28;19959;-70
2021/12/22 19:33:59;;;;;;;;;;;0.10;99.90;;;;;;8362773;28;19955;-70
2021/12/22 19:38:01;;;;;;;;;;;0.10;99.90;;;;;;8380402;28;20409;-70
2021/12/22 19:42:02;;;;;;;;;;;0.10;99.90;;;;;;8381981;28;20347;-70
2021/12/22 19:46:06;;;;;;;;;;;0.20;99.90;;;;;;8368724;28;19959;-70
2021/12/22 19:50:09;;;;;;;;;;;0.20;99.90;;;;;;8366117;28;19961;-70
2021/12/22 19:54:11;;;;;;;;;;;0.20;99.90;;;;;;8381106;28;19925;-70
2021/12/22 19:58:13;;;;;;;;;;;0.20;99.90;;;;;;8381674;28;19924;-69
2021/12/22 20:02:15;;;;;;;;;;;0.20;99.90;;;;;;8381758;28;20312;-70
2021/12/22 20:06:18;;;;;;;;;;;0.20;99.90;;;;;;8351084;28;20303;-70
2021/12/22 20:10:20;;;;;;;;;;;0.20;99.90;;;;;;8371902;28;19955;-70
2021/12/22 20:14:23;;;;;;;;;;;0.20;99.90;;;;;;8379648;28;19928;-70
2021/12/22 20:18:24;;;;;;;;;;;0.20;99.90;;;;;;8384122;28;19932;-70
2021/12/22 20:22:26;;;;;;;;;;;0.20;99.90;;;;;;8378264;28;20383;-69
2021/12/22 20:26:28;;;;;;;;;;;0.20;99.90;;;;;;8355619;28;19925;-70
2021/12/22 20:30:30;;;;;;;;;;;0.20;99.90;;;;;;8377421;28;19931;-70
2021/12/22 20:34:33;;;;;;;;;;;0.20;99.90;;;;;;8381026;28;19924;-70
2021/12/22 20:38:34;;;;;;;;;;;0.20;99.90;;;;;;8384421;28;19955;-70
2021/12/22 20:42:36;;;;;;;;;;;0.20;99.90;;;;;;8359119;28;20340;-69
2021/12/22 20:46:38;;;;;;;;;;;0.30;99.90;;;;;;8360609;28;19968;-70
2021/12/22 20:50:40;;;;;;;;;;;0.30;99.90;;;;;;8379319;28;19940;-70
2021/12/22 20:54:42;;;;;;;;;;;0.30;99.90;;;;;;8361541;28;20376;-70
2021/12/22 20:58:43;;;;;;;;;;;0.30;99.90;;;;;;8380936;28;20063;-70
2021/12/22 21:02:45;;;;;;;;;;;0.40;99.90;;;;;;8379547;28;19935;-70
2021/12/22 21:06:48;;;;;;;;;;;0.40;99.90;;;;;;8377971;28;20464;-70
2021/12/22 21:10:51;;;;;;;;;;;0.40;99.90;;;;;;8366273;28;20368;-70
2021/12/22 21:14:53;;;;;;;;;;;0.40;99.90;;;;;;8353872;28;19936;-70
2021/12/22 21:18:54;;;;;;;;;;;0.40;99.90;;;;;;8380206;28;20012;-70
2021/12/22 21:22:56;;;;;;;;;;;0.40;99.90;;;;;;8361797;28;19959;-70
2021/12/22 21:26:57;;;;;;;;;;;0.40;99.90;;;;;;8372436;28;20364;-70
2021/12/22 21:30:59;;;;;;;;;;;0.40;99.90;;;;;;8384981;28;20546;-70
2021/12/22 21:35:01;;;;;;;;;;;0.40;99.90;;;;;;8385391;28;20385;-70
2021/12/22 21:39:03;;;;;;;;;;;0.40;99.90;;;;;;8384683;28;19982;-69
2021/12/22 21:43:05;;;;;;;;;;;0.30;99.90;;;;;;8365895;28;20419;-69
2021/12/22 21:47:07;;;;;;;;;;;0.40;99.90;;;;;;8368331;28;19980;-69
2021/12/22 21:51:25;;;;;;;;;;;0.40;99.90;;;;;;8368248;28;19932;-69
2021/12/22 21:55:29;;;;;;;;;;;0.40;99.90;;;;;;8357194;28;20090;-69
2021/12/22 21:59:31;;;;;;;;;;;0.40;99.90;;;;;;8381423;28;19975;-70
2021/12/22 22:03:32;;;;;;;;;;;0.40;99.90;;;;;;8385591;28;20392;-70
2021/12/22 22:07:35;;;;;;;;;;;0.40;99.90;;;;;;8369337;28;19924;-70
2021/12/22 22:11:36;;;;;;;;;;;0.40;99.90;;;;;;8386205;28;19929;-70
2021/12/22 22:15:38;;;;;;;;;;;0.40;99.90;;;;;;8389225;28;19968;-70
2021/12/22 22:19:40;;;;;;;;;;;0.30;99.90;;;;;;8382563;28;19974;-70
2021/12/22 22:23:41;;;;;;;;;;;0.40;99.90;;;;;;8389303;28;20296;-70
2021/12/22 22:27:47;;;;;;;;;;;0.40;99.90;;;;;;8381792;28;19954;-70
2021/12/22 22:31:51;;;;;;;;;;;0.40;99.90;;;;;;8386507;28;20380;-70
2021/12/22 22:35:52;;;;;;;;;;;0.40;99.90;;;;;;8387810;28;20402;-70
2021/12/22 22:39:54;;;;;;;;;;;0.40;99.90;;;;;;8391121;28;20414;-70
2021/12/22 22:43:56;;;;;;;;;;;0.40;99.90;;;;;;8389541;28;19932;-69
2021/12/22 22:47:57;;;;;;;;;;;0.40;99.90;;;;;;8367717;28;20406;-70
2021/12/22 22:51:59;;;;;;;;;;;0.40;99.90;;;;;;8387483;28;19924;-70
2021/12/22 22:56:00;;;;;;;;;;;0.40;99.90;;;;;;8382990;28;19925;-70
2021/12/22 23:00:15;;;;;;;;;;;0.40;99.90;;;;;;8383747;28;20423;-70
2021/12/22 23:04:16;;;;;;;;;;;0.40;99.90;;;;;;8378801;28;20418;-70
2021/12/22 23:08:18;;;;;;;;;;;0.40;99.90;;;;;;8383229;28;20403;-70
2021/12/22 23:12:20;;;;;;;;;;;0.40;99.90;;;;;;8385275;28;20011;-69
2021/12/22 23:16:25;;;;;;;;;;;0.40;99.90;;;;;;8380474;28;19928;-69
2021/12/22 23:20:28;;;;;;;;;;;0.40;99.90;;;;;;8366869;28;20019;-69
2021/12/22 23:24:29;;;;;;;;;;;0.40;99.90;;;;;;8381355;28;20391;-69
2021/12/22 23:28:31;;;;;;;;;;;0.40;99.90;;;;;;8381151;28;19925;-70
2021/12/22 23:32:32;;;;;;;;;;;0.40;99.90;;;;;;8358123;28;19933;-70
2021/12/22 23:36:46;;;;;;;;;;;0.40;99.90;;;;;;8366981;28;20283;-70
2021/12/22 23:41:36;;;;;;;;;;;0.50;99.90;;;;;;8375875;28;19929;-70
2021/12/22 23:49:37;;;;;;;;;;;0.50;99.90;;;;;;8383674;28;20281;-70
2021/12/22 23:53:39;;;;;;;;;;;0.50;99.90;;;;;;8381395;28;20699;-69
2021/12/22 23:57:41;;;;;;;;;;;0.50;99.90;;;;;;8374830;28;20351;-69
